Time;durP1;ratioP1;P1;durP2;ratioP2;P2;SDS_P1;SDS_P2;PMS_P1;PMS_P2;Temp;Humidity;BMP_temperature;BMP_pressure;BME280_temperature;BME280_humidity;BME280_pressure;Samples;Min_cycle;Max_cycle;Signal;HPM_P1;HPM_P2
2024/02/29 00:00:45;;;;;;;36.63;17.50;;;;;;;3.13;86.99;101160.44;5057120;28;20220;-79
2024/02/29 00:03:11;;;;;;;33.97;16.10;;;;;;;3.11;87.17;101156.97;5056605;28;20626;-81
2024/02/29 00:05:38;;;;;;;30.73;15.90;;;;;;;3.09;86.77;101150.88;5055262;28;20205;-79
2024/02/29 00:08:07;;;;;;;27.97;15.77;;;;;;;3.05;87.94;101149.22;5053917;28;20811;-78
2024/02/29 00:10:33;;;;;;;31.83;16.37;;;;;;;3.04;87.62;101144.88;5052769;28;20217;-80
2024/02/29 00:12:59;;;;;;;33.00;15.97;;;;;;;3.02;87.50;101141.41;5054070;28;20233;-80
2024/02/29 00:15:27;;;;;;;29.90;14.67;;;;;;;3.01;88.24;101144.94;5055340;28;20225;-79
2024/02/29 00:17:53;;;;;;;27.97;14.53;;;;;;;2.98;87.40;101134.50;5059457;28;20208;-80
2024/02/29 00:20:20;;;;;;;31.80;16.27;;;;;;;2.97;88.52;101127.50;5052517;28;20205;-79
2024/02/29 00:22:46;;;;;;;27.30;15.03;;;;;;;2.95;88.53;101124.03;5058514;28;20202;-80
2024/02/29 00:25:15;;;;;;;32.20;16.37;;;;;;;2.94;88.78;101122.31;5053277;28;20201;-79
2024/02/29 00:27:42;;;;;;;27.57;13.37;;;;;;;2.94;88.38;101123.19;5054586;28;20296;-79
2024/02/29 00:30:10;;;;;;;24.17;13.27;;;;;;;2.97;88.39;101120.47;5054836;28;20611;-80
2024/02/29 00:32:37;;;;;;;23.90;14.10;;;;;;;3.00;88.45;101125.66;5052367;28;20236;-79
2024/02/29 00:35:04;;;;;;;23.27;12.83;;;;;;;3.06;88.51;101114.09;5053416;28;20244;-79
2024/02/29 00:37:31;;;;;;;22.00;11.57;;;;;;;3.15;87.62;101121.78;5056489;28;20296;-79
2024/02/29 00:39:58;;;;;;;21.47;12.40;;;;;;;3.19;87.58;101123.44;5050845;28;20205;-78
2024/02/29 00:42:26;;;;;;;23.33;12.67;;;;;;;3.24;87.24;101116.25;5058489;28;20241;-80
2024/02/29 00:44:52;;;;;;;22.03;13.00;;;;;;;3.29;86.38;101116.16;5057473;28;20209;-80
2024/02/29 00:47:19;;;;;;;21.97;12.30;;;;;;;3.30;86.74;101116.13;5054642;28;20206;-80
2024/02/29 00:49:45;;;;;;;19.03;11.47;;;;;;;3.32;86.58;101116.09;5058671;28;20222;-80
2024/02/29 00:52:12;;;;;;;19.70;11.70;;;;;;;3.29;86.58;101106.50;5054533;28;20228;-79
2024/02/29 00:54:38;;;;;;;20.47;10.83;;;;;;;3.29;86.79;101103.00;5057596;28;20219;-81
2024/02/29 00:57:05;;;;;;;22.47;12.30;;;;;;;3.32;86.13;101103.78;5056513;28;20208;-80
2024/02/29 00:59:33;;;;;;;20.63;11.33;;;;;;;3.32;86.67;101095.03;5058303;28;20357;-79
2024/02/29 01:01:59;;;;;;;21.87;11.43;;;;;;;3.30;86.82;101089.78;5057142;28;20597;-80
2024/02/29 01:04:25;;;;;;;21.37;12.10;;;;;;;3.32;85.77;101085.34;5055334;28;20221;-80
2024/02/29 01:06:52;;;;;;;18.83;11.27;;;;;;;3.33;86.07;101083.59;5057807;28;20551;-80
2024/02/29 01:09:20;;;;;;;21.53;11.40;;;;;;;3.41;85.21;101081.59;5056513;28;20225;-78
2024/02/29 01:11:48;;;;;;;16.00;10.93;;;;;;;3.40;84.99;101085.16;5052885;28;20218;-81
2024/02/29 01:14:14;;;;;;;19.37;10.47;;;;;;;3.42;85.42;101081.56;5052892;28;20342;-80
2024/02/29 01:16:42;;;;;;;20.07;11.83;;;;;;;3.42;85.31;101084.19;5053213;28;20249;-78
2024/02/29 01:19:09;;;;;;;20.47;10.67;;;;;;;3.44;85.17;101073.63;5060271;28;20201;-81
2024/02/29 01:21:35;;;;;;;17.70;11.23;;;;;;;3.47;84.17;101066.50;5058551;28;20206;-79
2024/02/29 01:24:02;;;;;;;20.07;10.90;;;;;;;3.50;84.56;101062.94;5057285;28;20226;-78
2024/02/29 01:26:28;;;;;;;19.30;12.33;;;;;;;3.52;83.85;101063.75;5055191;28;20573;-77
2024/02/29 01:28:56;;;;;;;16.67;11.00;;;;;;;3.54;83.78;101055.81;5055447;28;20218;-78
2024/02/29 01:31:22;;;;;;;18.23;10.93;;;;;;;3.52;82.78;101052.34;5063295;28;20197;-78
2024/02/29 01:33:50;;;;;;;19.87;11.03;;;;;;;3.47;82.74;101055.97;5048714;28;20406;-80
2024/02/29 01:36:17;;;;;;;19.80;11.73;;;;;;;3.43;82.70;101048.19;5057613;28;20205;-78
2024/02/29 01:38:43;;;;;;;19.60;11.30;;;;;;;3.39;83.02;101046.56;5051979;28;20688;-77
2024/02/29 01:41:10;;;;;;;20.13;11.43;;;;;;;3.36;83.27;101044.88;5054002;28;20201;-76
2024/02/29 01:43:36;;;;;;;24.27;11.97;;;;;;;3.33;83.39;101039.69;5051290;28;20222;-78
2024/02/29 01:46:11;;;;;;;21.57;11.70;;;;;;;3.32;83.19;101043.22;5054689;28;20209;-80
2024/02/29 01:48:38;;;;;;;24.10;11.33;;;;;;;3.29;83.65;101048.59;5052058;28;20213;-78
2024/02/29 01:51:07;;;;;;;17.53;10.63;;;;;;;3.26;83.52;101040.75;5059397;28;20225;-77
2024/02/29 01:53:33;;;;;;;20.07;11.33;;;;;;;3.24;82.92;101036.44;5053022;28;20271;-77
2024/02/29 01:56:00;;;;;;;21.30;11.83;;;;;;;3.22;83.06;101044.41;5058440;28;20240;-78
2024/02/29 01:58:27;;;;;;;19.47;11.63;;;;;;;3.19;82.97;101039.22;5051885;28;20194;-79
2024/02/29 02:00:53;;;;;;;18.83;11.50;;;;;;;3.20;82.94;101040.09;5053437;28;20210;-78
2024/02/29 02:03:20;;;;;;;20.50;12.40;;;;;;;3.18;83.28;101031.34;5052774;28;20304;-79
2024/02/29 02:05:46;;;;;;;18.03;10.90;;;;;;;3.16;82.91;101028.75;5057981;28;20209;-79
2024/02/29 02:08:14;;;;;;;20.07;12.17;;;;;;;3.12;83.32;101025.34;5047001;28;20205;-76
2024/02/29 02:10:41;;;;;;;18.40;11.97;;;;;;;3.14;83.48;101030.56;5054037;28;20234;-79
2024/02/29 02:13:08;;;;;;;16.93;10.03;;;;;;;3.12;83.04;101021.84;5056285;28;20231;-80
2024/02/29 02:15:34;;;;;;;16.50;10.27;;;;;;;3.12;83.01;101017.44;5063464;28;20250;-79
2024/02/29 02:18:01;;;;;;;20.27;10.87;;;;;;;3.15;83.04;101013.88;5055499;28;20209;-79
2024/02/29 02:20:29;;;;;;;19.97;11.30;;;;;;;3.18;83.14;101013.81;5056883;28;20205;-79
2024/02/29 02:22:55;;;;;;;18.53;10.73;;;;;;;3.16;83.00;101005.09;5056353;28;20225;-79
2024/02/29 02:25:22;;;;;;;19.73;11.20;;;;;;;3.16;82.68;101007.72;5057311;28;20217;-78
2024/02/29 02:27:48;;;;;;;18.53;11.23;;;;;;;3.20;82.81;101009.38;5056903;28;20206;-79
2024/02/29 02:30:15;;;;;;;18.77;11.33;;;;;;;3.19;82.68;101006.78;5052144;28;20224;-79
2024/02/29 02:32:41;;;;;;;18.87;11.03;;;;;;;3.19;82.76;101006.78;5051407;28;20234;-77
2024/02/29 02:35:09;;;;;;;19.10;11.40;;;;;;;3.20;81.66;101003.22;5054672;28;20701;-79
2024/02/29 02:37:37;;;;;;;17.47;10.67;;;;;;;3.20;82.41;100997.97;5055776;28;20205;-79
2024/02/29 02:40:05;;;;;;;20.97;10.43;;;;;;;3.16;82.10;100986.66;5054682;28;20197;-79
2024/02/29 02:42:32;;;;;;;17.90;10.67;;;;;;;3.16;82.53;100986.66;5055260;28;20225;-78
2024/02/29 02:44:58;;;;;;;18.27;11.00;;;;;;;3.16;82.83;100991.06;5054796;28;20202;-79
2024/02/29 02:47:25;;;;;;;18.97;11.00;;;;;;;3.16;82.91;100985.78;5057730;28;20198;-79
2024/02/29 02:49:51;;;;;;;17.87;11.07;;;;;;;3.13;82.13;100987.59;5057430;28;20233;-78
2024/02/29 02:52:18;;;;;;;19.87;11.27;;;;;;;3.12;82.91;100985.00;5053792;28;20229;-79
2024/02/29 02:54:45;;;;;;;17.30;11.07;;;;;;;3.12;82.56;100987.63;5059023;28;20589;-79
2024/02/29 02:57:12;;;;;;;19.40;11.07;;;;;;;3.12;82.05;100983.25;5053306;28;20206;-77
2024/02/29 02:59:38;;;;;;;19.63;11.17;;;;;;;3.13;82.56;100976.22;5046782;28;20232;-79
2024/02/29 03:02:05;;;;;;;17.13;10.93;;;;;;;3.11;82.76;100971.00;5059105;28;20224;-79
2024/02/29 03:04:31;;;;;;;17.70;10.80;;;;;;;3.10;82.40;100973.66;5056741;28;20209;-78
2024/02/29 03:06:58;;;;;;;16.07;10.20;;;;;;;3.05;83.33;100970.28;5053285;28;20574;-79
2024/02/29 03:09:24;;;;;;;22.20;11.40;;;;;;;3.04;83.29;100960.69;5053626;28;20225;-78
2024/02/29 03:11:52;;;;;;;19.27;11.23;;;;;;;3.02;83.00;100957.22;5053629;28;20211;-78
2024/02/29 03:14:19;;;;;;;20.13;11.33;;;;;;;3.01;82.87;100955.50;5051951;28;20212;-78
2024/02/29 03:16:45;;;;;;;21.57;12.03;;;;;;;3.00;83.67;100938.84;5052709;28;20210;-78
2024/02/29 03:19:12;;;;;;;21.87;12.83;;;;;;;3.00;83.35;100940.63;5054262;28;20206;-78
2024/02/29 03:21:38;;;;;;;17.73;10.00;;;;;;;3.03;83.24;100928.25;5057085;28;20201;-78
2024/02/29 03:24:05;;;;;;;18.80;10.63;;;;;;;3.06;83.09;100927.28;5053017;28;20201;-80
2024/02/29 03:26:31;;;;;;;18.10;11.53;;;;;;;3.02;82.94;100926.53;5055262;28;20216;-79
2024/02/29 03:28:59;;;;;;;21.97;11.67;;;;;;;3.01;82.63;100919.53;5052567;28;20202;-79
2024/02/29 03:31:26;;;;;;;18.07;10.77;;;;;;;3.00;82.66;100917.81;5051558;28;20204;-78
2024/02/29 03:33:52;;;;;;;19.87;11.03;;;;;;;2.99;82.97;100910.81;5054092;28;20225;-78
2024/02/29 03:36:21;;;;;;;20.13;11.27;;;;;;;2.98;82.98;100916.13;5055910;28;20212;-82
2024/02/29 03:38:48;;;;;;;18.27;10.07;;;;;;;2.97;83.20;100912.63;5054501;28;20209;-81
2024/02/29 03:41:14;;;;;;;18.97;11.10;;;;;;;2.97;83.00;100909.13;5054861;28;20209;-79
2024/02/29 03:43:40;;;;;;;19.53;11.43;;;;;;;2.94;82.50;100910.06;5055775;28;20217;-80
2024/02/29 03:46:09;;;;;;;20.07;10.77;;;;;;;2.91;83.53;100902.25;5059930;28;20212;-80
2024/02/29 03:48:35;;;;;;;19.37;11.43;;;;;;;2.88;83.54;100906.75;5057740;28;20235;-80
2024/02/29 03:51:02;;;;;;;18.47;11.43;;;;;;;2.83;83.79;100900.75;5054989;28;20282;-82
2024/02/29 03:53:29;;;;;;;20.90;10.97;;;;;;;2.82;83.80;100899.03;5050245;28;20233;-80
2024/02/29 03:55:56;;;;;;;18.87;11.73;;;;;;;2.81;83.24;100905.19;5055722;28;20297;-80
2024/02/29 03:58:22;;;;;;;19.77;10.90;;;;;;;2.78;83.63;100899.13;5051552;28;20208;-80
2024/02/29 04:00:49;;;;;;;19.50;10.37;;;;;;;2.77;83.46;100896.53;5050589;28;20205;-80
2024/02/29 04:03:16;;;;;;;22.33;13.03;;;;;;;2.75;84.36;100895.69;5054461;28;21255;-79
2024/02/29 04:05:43;;;;;;;22.63;11.67;;;;;;;2.71;83.66;100894.06;5052860;28;20208;-80
2024/02/29 04:08:11;;;;;;;18.50;11.60;;;;;;;2.70;83.89;100887.06;5055351;28;20213;-80
2024/02/29 04:10:38;;;;;;;22.20;11.63;;;;;;;2.68;84.32;100889.78;5048860;28;20237;-79
2024/02/29 04:13:05;;;;;;;16.20;10.73;;;;;;;2.69;84.07;100887.97;5057296;28;20275;-80
2024/02/29 04:15:31;;;;;;;18.90;11.73;;;;;;;2.68;84.61;100881.88;5056880;28;20574;-78
2024/02/29 04:17:58;;;;;;;19.10;10.67;;;;;;;2.66;84.79;100877.56;5056243;28;20216;-77
2024/02/29 04:20:26;;;;;;;20.93;11.03;;;;;;;2.68;84.54;100871.34;5050742;28;20208;-77
2024/02/29 04:22:52;;;;;;;18.67;9.77;;;;;;;2.70;84.11;100872.16;5050659;28;20233;-77
2024/02/29 04:25:22;;;;;;;19.37;10.73;;;;;;;2.77;84.66;100870.22;5052530;28;20211;-77
2024/02/29 04:27:49;;;;;;;18.80;10.87;;;;;;;2.80;84.18;100867.53;5050450;28;20202;-79
2024/02/29 04:30:17;;;;;;;18.27;10.37;;;;;;;2.82;84.22;100872.75;5055202;28;20268;-79
2024/02/29 04:32:44;;;;;;;17.63;11.03;;;;;;;2.85;84.38;100867.41;5055093;28;20840;-79
2024/02/29 04:35:11;;;;;;;17.43;10.03;;;;;;;2.85;83.37;100863.00;5052330;28;20197;-79
2024/02/29 04:37:39;;;;;;;18.83;11.33;;;;;;;2.87;83.42;100858.53;5056711;28;20645;-79
2024/02/29 04:40:08;;;;;;;19.30;10.60;;;;;;;2.90;83.60;100857.59;5057887;28;20247;-78
2024/02/29 04:42:34;;;;;;;15.83;10.30;;;;;;;2.87;83.22;100857.66;5057500;28;20411;-79
2024/02/29 04:45:01;;;;;;;17.93;10.47;;;;;;;2.82;83.66;100860.44;5056206;28;20209;-79
2024/02/29 04:47:28;;;;;;;14.57;9.70;;;;;;;2.79;82.92;100856.13;5051785;28;20204;-78
2024/02/29 04:49:54;;;;;;;16.07;9.63;;;;;;;2.75;82.85;100865.00;5060279;28;20716;-77
2024/02/29 04:52:22;;;;;;;16.47;10.20;;;;;;;2.71;83.59;100858.09;5057805;28;20255;-79
2024/02/29 04:54:50;;;;;;;16.90;10.47;;;;;;;2.67;84.25;100856.47;5059607;28;20201;-79
2024/02/29 04:57:16;;;;;;;16.03;10.83;;;;;;;2.66;83.55;100848.63;5056410;28;20555;-78
2024/02/29 04:59:43;;;;;;;21.17;11.47;;;;;;;2.62;84.52;100849.63;5059068;28;20213;-78
2024/02/29 05:02:10;;;;;;;18.63;11.20;;;;;;;2.61;84.18;100848.75;5053682;28;20715;-78
2024/02/29 05:04:37;;;;;;;16.90;10.30;;;;;;;2.62;84.81;100847.84;5047850;28;20206;-78
2024/02/29 05:07:04;;;;;;;16.50;9.80;;;;;;;2.66;84.52;100838.13;5054570;28;20235;-79
2024/02/29 05:09:29;;;;;;;16.77;10.00;;;;;;;2.67;84.64;100838.06;5049387;28;20205;-79
2024/02/29 05:11:57;;;;;;;18.60;10.97;;;;;;;2.70;83.71;100835.34;5054585;28;20208;-79
2024/02/29 05:14:24;;;;;;;17.60;10.57;;;;;;;2.71;83.65;100833.56;5046953;28;20218;-80
2024/02/29 05:16:50;;;;;;;21.00;11.20;;;;;;;2.71;83.56;100836.19;5054089;28;20212;-78
2024/02/29 05:19:16;;;;;;;17.27;10.80;;;;;;;2.69;84.36;100840.63;5055706;28;20206;-79
2024/02/29 05:21:44;;;;;;;17.27;10.87;;;;;;;2.65;84.61;100836.38;5052652;28;20209;-79
2024/02/29 05:24:11;;;;;;;16.20;10.13;;;;;;;2.64;83.91;100839.94;5045829;28;20214;-81
2024/02/29 05:26:38;;;;;;;18.33;11.40;;;;;;;2.64;84.35;100834.66;5051697;28;20205;-79
2024/02/29 05:29:06;;;;;;;16.83;9.67;;;;;;;2.63;84.83;100825.91;5051558;28;20213;-78
2024/02/29 05:31:32;;;;;;;16.67;10.07;;;;;;;2.63;84.17;100830.31;5048984;28;20241;-80
2024/02/29 05:33:59;;;;;;;14.97;9.67;;;;;;;2.64;84.34;100835.53;5052933;28;20225;-80
2024/02/29 05:36:25;;;;;;;16.97;9.53;;;;;;;2.68;84.87;100831.06;5049853;28;20202;-79
2024/02/29 05:38:52;;;;;;;16.50;9.27;;;;;;;2.73;84.35;100830.00;5061866;28;20216;-79
2024/02/29 05:41:18;;;;;;;14.60;9.57;;;;;;;2.76;84.33;100819.41;5053281;28;20194;-78
2024/02/29 05:43:46;;;;;;;15.77;9.33;;;;;;;2.81;84.05;100821.03;5056588;28;20229;-78
2024/02/29 05:46:15;;;;;;;13.23;8.90;;;;;;;2.84;83.38;100815.69;5050509;28;20263;-78
2024/02/29 05:48:41;;;;;;;16.87;9.07;;;;;;;2.85;83.44;100812.16;5051058;28;21874;-79
2024/02/29 05:51:08;;;;;;;14.00;9.20;;;;;;;2.87;82.96;100816.44;5053580;28;20225;-79
2024/02/29 05:53:35;;;;;;;16.83;10.20;;;;;;;2.91;82.61;100809.31;5049455;28;20218;-79
2024/02/29 05:56:01;;;;;;;14.50;9.77;;;;;;;2.92;82.45;100811.06;5049304;28;20210;-78
2024/02/29 05:58:30;;;;;;;16.73;10.43;;;;;;;2.93;82.45;100813.63;5051962;28;20205;-78
2024/02/29 06:00:57;;;;;;;18.73;10.67;;;;;;;2.96;82.69;100810.06;5047627;28;20213;-78
2024/02/29 06:03:24;;;;;;;17.30;9.73;;;;;;;2.90;82.50;100803.19;5046101;28;20229;-79
2024/02/29 06:05:51;;;;;;;15.40;10.17;;;;;;;2.86;82.57;100809.50;5047335;28;20198;-78
2024/02/29 06:08:17;;;;;;;19.97;11.13;;;;;;;2.83;83.02;100809.56;5050348;28;20208;-78
2024/02/29 06:10:46;;;;;;;18.87;10.50;;;;;;;2.73;82.52;100801.06;5050269;28;20226;-78
2024/02/29 06:13:13;;;;;;;17.17;10.70;;;;;;;2.68;83.46;100810.00;5043786;28;20607;-78
2024/02/29 06:15:39;;;;;;;18.13;10.83;;;;;;;2.66;83.77;100804.78;5045046;28;20206;-77
2024/02/29 06:18:07;;;;;;;18.37;10.37;;;;;;;2.66;84.17;100810.06;5049735;28;20729;-78
2024/02/29 06:20:34;;;;;;;16.87;11.07;;;;;;;2.65;84.12;100805.69;5047864;28;20206;-78
2024/02/29 06:23:01;;;;;;;19.67;10.73;;;;;;;2.60;84.38;100802.31;5047061;28;20225;-77
2024/02/29 06:25:27;;;;;;;21.30;11.57;;;;;;;2.59;83.74;100805.00;5048028;28;20204;-79
2024/02/29 06:27:54;;;;;;;18.50;10.67;;;;;;;2.60;84.68;100799.69;5049985;28;20217;-78
2024/02/29 06:30:20;;;;;;;21.83;11.37;;;;;;;2.59;84.71;100805.00;5050346;28;20229;-78
2024/02/29 06:32:47;;;;;;;18.27;11.70;;;;;;;2.56;84.21;100803.31;5046178;28;20229;-79
2024/02/29 06:35:13;;;;;;;18.47;10.23;;;;;;;2.53;85.10;100800.75;5050301;28;20202;-79
2024/02/29 06:37:42;;;;;;;22.57;11.00;;;;;;;2.55;85.06;100798.97;5044072;28;20221;-78
2024/02/29 06:40:10;;;;;;;19.03;10.87;;;;;;;2.55;84.87;100793.69;5050121;28;20212;-77
2024/02/29 06:42:37;;;;;;;19.40;11.23;;;;;;;2.54;85.43;100797.22;5049568;28;20354;-78
2024/02/29 06:45:05;;;;;;;20.13;11.77;;;;;;;2.55;85.48;100792.84;5050022;28;20225;-78
2024/02/29 06:47:33;;;;;;;21.67;12.83;;;;;;;2.59;86.09;100797.13;5050511;28;20197;-77
2024/02/29 06:50:00;;;;;;;20.07;10.97;;;;;;;2.63;85.84;100791.72;5051388;28;20295;-78
2024/02/29 06:52:26;;;;;;;20.87;11.93;;;;;;;2.63;85.51;100788.25;5051444;28;20229;-78
2024/02/29 06:54:55;;;;;;;20.63;12.07;;;;;;;2.69;86.23;100795.94;5046911;28;20263;-78
2024/02/29 06:57:21;;;;;;;19.10;11.93;;;;;;;2.75;86.62;100795.75;5050596;28;20209;-79
2024/02/29 06:59:48;;;;;;;20.80;11.80;;;;;;;2.78;85.77;100791.28;5047518;28;20209;-78
2024/02/29 07:02:14;;;;;;;20.53;11.93;;;;;;;2.84;85.60;100786.75;5043307;28;20588;-79
2024/02/29 07:04:42;;;;;;;20.87;12.13;;;;;;;2.88;85.55;100783.97;5048091;28;20202;-77
2024/02/29 07:07:09;;;;;;;22.33;12.40;;;;;;;2.91;85.55;100788.28;5046543;28;20212;-79
2024/02/29 07:09:36;;;;;;;22.80;12.00;;;;;;;2.93;85.35;100787.34;5050743;28;20206;-77
2024/02/29 07:12:04;;;;;;;18.47;11.40;;;;;;;2.99;84.97;100784.53;5047111;28;20236;-77
2024/02/29 07:14:31;;;;;;;21.37;11.90;;;;;;;3.07;85.04;100789.53;5047077;28;20212;-80
2024/02/29 07:16:57;;;;;;;18.83;11.67;;;;;;;3.12;85.29;100790.28;5048981;28;20204;-80
2024/02/29 07:19:25;;;;;;;20.17;11.47;;;;;;;3.18;84.90;100791.88;5045364;28;20198;-80
2024/02/29 07:21:54;;;;;;;19.37;11.63;;;;;;;3.27;84.21;100789.78;5049846;28;20215;-80
2024/02/29 07:24:21;;;;;;;20.23;10.90;;;;;;;3.31;83.88;100788.78;5049058;28;20206;-80
2024/02/29 07:26:47;;;;;;;17.00;11.37;;;;;;;3.44;83.20;100787.50;5050331;28;20205;-80
2024/02/29 07:29:15;;;;;;;21.50;11.90;;;;;;;3.49;83.44;100785.59;5050426;28;20202;-80
2024/02/29 07:31:42;;;;;;;21.47;12.57;;;;;;;3.54;83.16;100777.53;5047334;28;20228;-80
2024/02/29 07:34:10;;;;;;;20.43;12.17;;;;;;;3.59;83.25;100777.38;5047867;28;20677;-80
2024/02/29 07:36:39;;;;;;;21.17;12.53;;;;;;;3.63;82.78;100779.00;5047698;28;20822;-80
2024/02/29 07:39:07;;;;;;;20.57;12.03;;;;;;;3.71;82.76;100782.25;5050108;28;20220;-80
2024/02/29 07:41:33;;;;;;;18.33;10.93;;;;;;;3.81;82.62;100786.28;5047853;28;20842;-80
2024/02/29 07:44:00;;;;;;;19.17;11.77;;;;;;;3.87;82.19;100780.84;5050115;28;20233;-81
2024/02/29 07:46:28;;;;;;;18.87;11.07;;;;;;;3.93;82.52;100780.63;5049031;28;20288;-80
2024/02/29 07:48:54;;;;;;;19.33;11.63;;;;;;;4.02;82.09;100782.94;5049495;28;20208;-79
2024/02/29 07:51:21;;;;;;;20.03;12.30;;;;;;;4.14;81.34;100786.91;5047523;28;20221;-80
2024/02/29 07:53:47;;;;;;;20.07;11.07;;;;;;;4.23;81.46;100788.38;5049137;28;20229;-80
2024/02/29 07:56:13;;;;;;;22.63;12.13;;;;;;;4.32;80.68;100786.28;5049767;28;20213;-79
2024/02/29 07:58:40;;;;;;;17.27;10.90;;;;;;;4.43;79.94;100785.91;5048306;28;20236;-80
2024/02/29 08:01:06;;;;;;;18.80;11.53;;;;;;;4.53;79.84;100780.22;5047014;28;20216;-80
2024/02/29 08:03:34;;;;;;;18.67;11.30;;;;;;;4.62;79.30;100781.69;5052952;28;20233;-79
2024/02/29 08:06:01;;;;;;;18.47;11.20;;;;;;;4.72;78.87;100780.41;5053433;28;20201;-81
2024/02/29 08:08:27;;;;;;;17.40;11.50;;;;;;;4.80;78.76;100775.72;5054249;28;20641;-79
2024/02/29 08:10:54;;;;;;;17.83;10.80;;;;;;;4.89;78.67;100764.81;5056840;28;20311;-80
2024/02/29 08:13:20;;;;;;;16.73;11.40;;;;;;;5.04;78.66;100767.78;5053440;28;20224;-80
2024/02/29 08:15:46;;;;;;;18.97;11.57;;;;;;;5.14;78.74;100767.38;5053652;28;20208;-79
2024/02/29 08:18:13;;;;;;;16.87;11.30;;;;;;;5.28;77.77;100769.47;5052747;28;20208;-80
2024/02/29 08:20:42;;;;;;;21.07;11.63;;;;;;;5.41;76.72;100751.34;5046749;28;20205;-78
2024/02/29 08:23:11;;;;;;;21.67;11.73;;;;;;;5.56;76.48;100748.06;5048884;28;20316;-79
2024/02/29 08:25:37;;;;;;;18.27;11.00;;;;;;;5.69;75.63;100744.00;5049434;28;20863;-80
2024/02/29 08:28:05;;;;;;;18.67;12.03;;;;;;;5.80;75.80;100747.06;5053854;28;20205;-80
2024/02/29 08:30:31;;;;;;;17.90;10.80;;;;;;;5.93;74.53;100743.00;5053313;28;20204;-77
2024/02/29 08:32:58;;;;;;;16.20;11.33;;;;;;;6.06;75.02;100742.50;5051508;28;20260;-78
2024/02/29 08:35:24;;;;;;;15.93;11.77;;;;;;;6.19;74.92;100735.72;5053794;28;20209;-79
2024/02/29 08:37:52;;;;;;;20.40;11.30;;;;;;;6.32;73.97;100726.31;5056155;28;20217;-79
2024/02/29 08:40:19;;;;;;;18.23;12.13;;;;;;;6.42;73.83;100727.66;5048879;28;20666;-78
2024/02/29 08:42:45;;;;;;;17.50;11.53;;;;;;;6.55;73.36;100728.81;5050533;28;20263;-79
2024/02/29 08:45:12;;;;;;;20.10;12.53;;;;;;;6.67;73.68;100726.50;5049950;28;20201;-79
2024/02/29 08:47:38;;;;;;;19.10;12.07;;;;;;;6.76;73.04;100731.41;5048357;28;20216;-78
2024/02/29 08:50:06;;;;;;;17.73;11.70;;;;;;;6.85;72.78;100717.72;5052149;28;20206;-78
2024/02/29 08:52:33;;;;;;;16.43;10.27;;;;;;;6.96;72.83;100721.59;5048186;28;20234;-78
2024/02/29 08:55:01;;;;;;;18.83;11.93;;;;;;;7.16;71.15;100725.09;5055401;28;20726;-78
2024/02/29 08:57:29;;;;;;;16.33;10.87;;;;;;;7.21;70.90;100726.56;5049018;28;20597;-78
2024/02/29 08:59:55;;;;;;;16.07;11.43;;;;;;;7.35;70.23;100725.03;5048778;28;20673;-78
2024/02/29 09:02:21;;;;;;;16.33;12.00;;;;;;;7.39;70.39;100727.47;5047907;28;20624;-78
2024/02/29 09:04:48;;;;;;;16.50;11.40;;;;;;;7.54;69.77;100725.84;5055009;28;20204;-78
2024/02/29 09:07:14;;;;;;;16.43;11.03;;;;;;;7.61;69.19;100728.13;5055129;28;20218;-78
2024/02/29 09:09:41;;;;;;;15.63;10.43;;;;;;;7.73;68.43;100717.81;5055188;28;20298;-79
2024/02/29 09:12:10;;;;;;;15.20;10.43;;;;;;;7.81;68.29;100713.88;5047636;28;20242;-79
2024/02/29 09:14:37;;;;;;;17.00;11.20;;;;;;;7.86;68.38;100709.19;5049580;28;20206;-78
2024/02/29 09:17:06;;;;;;;15.97;10.93;;;;;;;7.97;67.85;100709.50;5048003;28;20205;-78
2024/02/29 09:19:32;;;;;;;17.93;10.97;;;;;;;8.06;68.01;100702.84;5050641;28;20655;-78
2024/02/29 09:21:59;;;;;;;15.43;10.43;;;;;;;8.15;68.19;100698.84;5047992;28;20206;-78
2024/02/29 09:24:25;;;;;;;18.70;11.73;;;;;;;8.23;67.00;100691.38;5052325;28;20217;-79
2024/02/29 09:26:52;;;;;;;16.27;11.40;;;;;;;8.28;67.31;100692.81;5052960;28;20714;-78
2024/02/29 09:29:19;;;;;;;18.00;11.80;;;;;;;8.38;67.13;100689.72;5056174;28;20228;-78
2024/02/29 09:31:46;;;;;;;16.77;11.00;;;;;;;8.48;66.48;100686.47;5051136;28;20240;-78
2024/02/29 09:34:12;;;;;;;17.90;12.30;;;;;;;8.50;66.56;100676.63;5054541;28;20204;-78
2024/02/29 09:36:39;;;;;;;15.50;10.80;;;;;;;8.60;65.85;100674.31;5052384;28;20205;-78
2024/02/29 09:39:06;;;;;;;19.23;11.63;;;;;;;8.65;66.79;100667.84;5052925;28;20201;-79
2024/02/29 09:41:32;;;;;;;16.47;10.97;;;;;;;8.73;66.42;100663.91;5051777;28;20205;-78
2024/02/29 09:43:59;;;;;;;18.87;12.80;;;;;;;8.79;65.97;100660.88;5051802;28;20222;-78
2024/02/29 09:46:27;;;;;;;17.13;11.60;;;;;;;8.83;65.65;100671.25;5051478;28;20207;-80
2024/02/29 09:48:53;;;;;;;17.53;11.17;;;;;;;8.92;65.07;100657.50;5051128;28;20205;-79
2024/02/29 09:51:21;;;;;;;17.23;11.10;;;;;;;9.00;65.45;100663.19;5049828;28;20237;-78
2024/02/29 09:53:50;;;;;;;22.90;12.93;;;;;;;9.05;65.86;100657.63;5046803;28;20265;-78
2024/02/29 09:56:18;;;;;;;19.17;12.07;;;;;;;9.09;65.37;100653.00;5049691;28;20204;-79
2024/02/29 09:58:45;;;;;;;16.63;11.00;;;;;;;9.12;64.55;100652.84;5046863;28;20549;-79
2024/02/29 10:01:12;;;;;;;18.80;11.07;;;;;;;9.13;64.57;100654.56;5052055;28;20585;-78
2024/02/29 10:03:41;;;;;;;17.03;12.60;;;;;;;9.18;64.51;100655.13;5050462;28;20230;-78
2024/02/29 10:06:09;;;;;;;18.27;11.30;;;;;;;9.19;64.96;100651.53;5050482;28;20206;-78
2024/02/29 10:08:36;;;;;;;17.07;12.40;;;;;;;9.26;64.63;100644.94;5049477;28;20206;-78
2024/02/29 10:11:02;;;;;;;16.83;10.97;;;;;;;9.32;64.14;100639.25;5051223;28;20263;-78
2024/02/29 10:13:37;;;;;;;16.73;11.43;;;;;;;9.36;64.58;100649.59;5047699;28;20720;-79
2024/02/29 10:16:04;;;;;;;16.50;12.03;;;;;;;9.38;65.08;100647.72;5049090;28;20723;-78
2024/02/29 10:18:32;;;;;;;16.57;11.70;;;;;;;9.45;64.30;100642.06;5051322;28;20202;-78
2024/02/29 10:21:02;;;;;;;18.13;12.03;;;;;;;9.51;64.77;100645.19;5047270;28;20565;-79
2024/02/29 10:23:29;;;;;;;17.20;10.90;;;;;;;9.57;64.39;100636.88;5048027;28;20240;-78
2024/02/29 10:25:55;;;;;;;18.40;12.50;;;;;;;9.60;63.87;100631.38;5042874;28;20222;-78
2024/02/29 10:28:22;;;;;;;17.97;12.40;;;;;;;9.64;64.40;100629.38;5048057;28;20199;-78
2024/02/29 10:30:51;;;;;;;16.07;11.30;;;;;;;9.69;64.47;100627.28;5048502;28;20233;-78
2024/02/29 10:33:17;;;;;;;18.03;11.83;;;;;;;9.74;64.20;100634.03;5049876;28;20749;-78
2024/02/29 10:35:44;;;;;;;17.27;10.90;;;;;;;9.80;63.10;100624.84;5050368;28;20213;-78
2024/02/29 10:38:12;;;;;;;13.50;9.67;;;;;;;9.85;63.39;100627.25;5049404;28;20203;-78
2024/02/29 10:40:38;;;;;;;14.57;10.57;;;;;;;9.90;61.88;100622.47;5048049;28;20213;-78
2024/02/29 10:43:09;;;;;;;16.40;11.37;;;;;;;9.92;62.85;100613.47;5046957;28;20249;-78
2024/02/29 10:45:42;;;;;;;16.80;10.53;;;;;;;9.98;63.20;100607.78;5050447;28;20213;-78
2024/02/29 10:48:15;;;;;;;14.43;10.20;;;;;;;10.03;62.24;100603.00;5050134;28;20212;-77
2024/02/29 10:50:52;;;;;;;13.93;10.60;;;;;;;10.08;62.73;100608.03;5048787;28;20208;-78
2024/02/29 10:53:33;;;;;;;14.87;10.50;;;;;;;10.14;62.10;100602.34;5051700;28;20226;-79
2024/02/29 10:56:07;;;;;;;12.40;9.53;;;;;;;10.10;61.92;100600.81;5050023;28;20682;-78
2024/02/29 10:58:40;;;;;;;13.40;10.27;;;;;;;10.17;62.46;100601.31;5047547;28;20659;-78
2024/02/29 11:01:06;;;;;;;14.03;10.30;;;;;;;10.20;61.34;100601.16;5050230;28;20741;-79
2024/02/29 11:03:34;;;;;;;12.87;9.27;;;;;;;10.21;62.07;100594.88;5049538;28;20232;-79
2024/02/29 11:06:02;;;;;;;13.23;9.67;;;;;;;10.24;61.19;100595.53;5046534;28;20629;-78
2024/02/29 11:08:31;;;;;;;14.53;9.70;;;;;;;10.27;60.58;100590.00;5048928;28;20212;-79
2024/02/29 11:10:58;;;;;;;14.40;10.40;;;;;;;10.26;60.90;100582.97;5048681;28;20214;-78
2024/02/29 11:13:27;;;;;;;13.87;9.73;;;;;;;10.32;61.75;100587.06;5048517;28;20253;-78
2024/02/29 11:15:56;;;;;;;12.90;9.60;;;;;;;10.36;60.87;100577.94;5050302;28;20663;-77